Time;durP1;ratioP1;P1;durP2;ratioP2;P2;SDS_P1;SDS_P2;PMS_P1;PMS_P2;Temp;Humidity;BMP_temperature;BMP_pressure;BME280_temperature;BME280_humidity;BME280_pressure;Samples;Min_cycle;Max_cycle;Signal;HPM_P1;HPM_P2
2024/01/16 08:56:56;;;;;;;;;;;;;;;6.71;100.00;99117.13;5008314;23;20046;-81
2024/01/16 08:59:21;;;;;;;;;;;;;;;6.75;100.00;99122.28;4927088;29;19959;-80
2024/01/16 09:01:46;;;;;;;;;;;;;;;6.76;100.00;99113.47;4926945;29;19919;-92
2024/01/16 09:04:11;;;;;;;;;;;;;;;6.79;100.00;99118.63;4917730;29;19926;-80
2024/01/16 09:06:37;;;;;;;;;;;;;;;6.75;100.00;99101.22;4927479;29;19923;-79
2024/01/16 09:09:04;;;;;;;;;;;;;;;6.77;100.00;99110.78;4926895;29;19927;-79
2024/01/16 09:11:29;;;;;;;;;;;;;;;6.81;100.00;99114.16;4925144;29;19922;-88
2024/01/16 09:13:55;;;;;;;;;;;;;;;6.81;100.00;99117.66;4925482;29;19923;-80
2024/01/16 09:16:20;;;;;;;;;;;;;;;6.83;100.00;99120.22;4926668;29;20406;-80
2024/01/16 09:18:46;;;;;;;;;;;;;;;6.85;100.00;99115.78;4926563;29;20367;-79
2024/01/16 09:21:11;;;;;;;;;;;;;;;6.84;100.00;99114.88;4926923;29;20278;-87
2024/01/16 09:23:37;;;;;;;;;;;;;;;6.86;100.00;99114.84;4909608;29;20887;-80
2024/01/16 09:26:02;;;;;;;;;;;;;;;6.84;100.00;99116.69;4908093;29;20405;-81
2024/01/16 09:28:28;;;;;;;;;;;;;;;6.88;100.00;99107.75;4926592;29;19923;-79
2024/01/16 09:30:55;;;;;;;;;;;;;;;6.91;100.00;99105.00;4926955;29;19966;-79
2024/01/16 09:33:21;;;;;;;;;;;;;;;6.90;100.00;99103.28;4926743;29;19945;-80
2024/01/16 09:35:46;;;;;;;;;;;;;;;6.90;100.00;99087.47;4926190;29;19966;-80
2024/01/16 09:38:11;;;;;;;;;;;;;;;6.92;100.00;99083.00;4909097;29;19932;-79
2024/01/16 09:40:37;;;;;;;;;;;;;;;6.95;100.00;99082.88;4925510;29;20403;-80
2024/01/16 09:43:04;;;;;;;;;;;;;;;6.95;100.00;99077.59;4926264;29;20005;-79
2024/01/16 09:45:30;;;;;;;;;;;;;;;6.97;100.00;99078.41;4926269;29;20331;-80
2024/01/16 09:47:56;;;;;;;;;;;;;;;6.99;100.00;99073.94;4926411;29;19918;-79
2024/01/16 09:50:22;;;;;;;;;;;;;;;6.99;100.00;99068.69;4926421;29;19923;-79
2024/01/16 09:52:47;;;;;;;;;;;;;;;6.96;100.00;99074.06;4926589;29;20339;-80
2024/01/16 09:55:13;;;;;;;;;;;;;;;7.02;100.00;99072.94;4907605;29;19923;-80
2024/01/16 09:57:40;;;;;;;;;;;;;;;6.91;100.00;99065.50;4925859;29;19923;-80
2024/01/16 10:00:06;;;;;;;;;;;;;;;6.04;100.00;99064.38;4926030;29;20010;-80
2024/01/16 10:02:31;;;;;;;;;;;;;;;5.64;100.00;99071.84;4925957;29;20062;-81
2024/01/16 10:04:56;;;;;;;;;;;;;;;5.51;100.00;99063.50;4926287;29;20497;-81
2024/01/16 10:07:27;;;;;;;;;;;;;;;5.35;100.00;99068.41;4926030;29;19979;-79
2024/01/16 10:09:52;;;;;;;;;;;;;;;5.22;100.00;99067.97;4924220;29;20074;-81
2024/01/16 10:12:18;;;;;;;;;;;;;;;5.16;100.00;99060.28;4926080;29;20406;-80
2024/01/16 10:14:45;;;;;;;;;;;;;;;5.13;100.00;99064.78;4926044;29;20290;-80
2024/01/16 10:17:17;;;;;;;;;;;;;;;5.09;100.00;99064.03;4924866;29;19922;-80
2024/01/16 10:19:49;;;;;;;;;;;;;;;5.02;100.00;99075.63;4926158;29;19918;-80
2024/01/16 10:22:19;;;;;;;;;;;;;;;4.95;100.00;99064.44;4925296;29;19923;-80
2024/01/16 10:24:45;;;;;;;;;;;;;;;4.95;100.00;99066.22;4924580;29;20263;-80
2024/01/16 10:27:10;;;;;;;;;;;;;;;4.83;100.00;99064.81;4916179;29;19919;-81
2024/01/16 10:29:36;;;;;;;;;;;;;;;4.85;100.00;99069.13;4925645;29;19919;-81
2024/01/16 10:32:01;;;;;;;;;;;;;;;4.81;100.00;99064.88;4926026;29;19963;-79
2024/01/16 10:34:27;;;;;;;;;;;;;;;4.76;100.00;99066.78;4925484;29;19962;-80
2024/01/16 10:36:58;;;;;;;;;;;;;;;4.75;100.00;99061.56;4925189;29;19923;-80
2024/01/16 10:39:23;;;;;;;;;;;;;;;4.73;100.00;99053.75;4908317;29;19930;-79
2024/01/16 10:41:56;;;;;;;;;;;;;;;4.70;100.00;99059.09;4924307;29;19915;-79
2024/01/16 10:44:21;;;;;;;;;;;;;;;4.67;100.00;99053.94;4924444;29;19919;-79
2024/01/16 10:46:46;;;;;;;;;;;;;;;4.63;100.00;99042.69;4925353;29;19962;-79
2024/01/16 10:49:11;;;;;;;;;;;;;;;4.61;100.00;99036.63;4925670;29;20009;-79
2024/01/16 10:51:39;;;;;;;;;;;;;;;4.58;100.00;99027.97;4925531;29;19915;-83
2024/01/16 10:54:11;;;;;;;;;;;;;;;4.58;100.00;99023.59;4925242;29;20374;-79
2024/01/16 10:56:36;;;;;;;;;;;;;;;4.54;100.00;99022.81;4923462;29;20386;-80
2024/01/16 10:59:07;;;;;;;;;;;;;;;4.55;100.00;99029.78;4925675;29;19918;-78
2024/01/16 11:01:33;;;;;;;;;;;;;;;4.48;100.00;99036.13;4923223;29;19919;-79
2024/01/16 11:04:00;;;;;;;;;;;;;;;4.49;100.00;99034.38;4925283;29;19919;-79
2024/01/16 11:06:26;;;;;;;;;;;;;;;4.50;100.00;99044.81;4915701;29;19930;-78
2024/01/16 11:08:52;;;;;;;;;;;;;;;4.43;100.00;99037.16;4925521;29;19962;-82
2024/01/16 11:11:17;;;;;;;;;;;;;;;4.42;100.00;99038.06;4923844;29;20409;-78
2024/01/16 11:13:44;;;;;;;;;;;;;;;4.46;100.00;99043.19;4925278;29;19919;-82
2024/01/16 11:16:13;;;;;;;;;;;;;;;4.43;100.00;99030.16;4915517;29;20021;-79
2024/01/16 11:18:38;;;;;;;;;;;;;;;4.40;100.00;99035.47;4925101;29;20271;-81
2024/01/16 11:21:05;;;;;;;;;;;;;;;4.34;100.00;99035.66;4924375;29;19930;-80
2024/01/16 11:23:31;;;;;;;;;;;;;;;4.40;100.00;99019.75;4925044;29;19919;-78
2024/01/16 11:25:56;;;;;;;;;;;;;;;4.31;100.00;99025.28;4923481;29;19930;-79
2024/01/16 11:28:26;;;;;;;;;;;;;;;4.29;100.00;99022.72;4925083;29;19919;-78
2024/01/16 11:30:52;;;;;;;;;;;;;;;4.36;100.00;99011.13;4925176;29;19942;-78
2024/01/16 11:33:32;;;;;;;;;;;;;;;4.33;100.00;99018.22;4924761;29;20383;-77
2024/01/16 11:35:57;;;;;;;;;;;;;;;4.32;100.00;99013.88;4924514;29;19930;-78
2024/01/16 11:38:32;;;;;;;;;;;;;;;4.33;100.00;99005.97;4910720;29;19923;-78
2024/01/16 11:40:57;;;;;;;;;;;;;;;4.30;100.00;99005.19;4926604;29;19926;-81
2024/01/16 11:43:32;;;;;;;;;;;;;;;4.27;100.00;99002.66;4928325;29;19923;-77
2024/01/16 11:45:58;;;;;;;;;;;;;;;4.28;100.00;99004.41;4927573;29;19914;-77
2024/01/16 11:48:24;;;;;;;;;;;;;;;4.25;100.00;98996.63;4928336;29;20005;-79
2024/01/16 11:50:49;;;;;;;;;;;;;;;4.24;100.00;98993.09;4928445;29;20058;-78
2024/01/16 11:53:29;;;;;;;;;;;;;;;4.26;100.00;98986.09;4928242;29;20282;-77
2024/01/16 11:56:09;;;;;;;;;;;;;;;4.29;100.00;98979.88;4926973;29;19919;-78
2024/01/16 11:59:01;;;;;;;;;;;;;;;4.23;100.00;98977.41;4928254;29;19919;-78
2024/01/16 12:01:26;;;;;;;;;;;;;;;4.20;100.00;98970.53;4923918;29;19923;-78
2024/01/16 12:04:01;;;;;;;;;;;;;;;4.24;100.00;98977.38;4927963;29;19993;-80
2024/01/16 12:06:26;;;;;;;;;;;;;;;4.23;100.00;98974.81;4909658;29;20371;-81
2024/01/16 12:08:52;;;;;;;;;;;;;;;4.12;100.00;98973.38;4927987;29;19923;-80
2024/01/16 12:11:20;;;;;;;;;;;;;;;4.19;100.00;98969.66;4916107;29;19978;-80
2024/01/16 12:14:00;;;;;;;;;;;;;;;4.16;100.00;98967.16;4928201;29;20006;-79
2024/01/16 12:16:25;;;;;;;;;;;;;;;4.16;100.00;98961.03;4927741;29;20341;-81
2024/01/16 12:19:03;;;;;;;;;;;;;;;4.16;100.00;98951.41;4928131;29;19926;-78
2024/01/16 12:21:28;;;;;;;;;;;;;;;4.18;100.00;98946.13;4910855;29;20279;-79
2024/01/16 12:23:54;;;;;;;;;;;;;;;4.13;100.00;98940.13;4926903;29;19930;-79
2024/01/16 12:26:22;;;;;;;;;;;;;;;4.16;100.00;98942.66;4926179;29;20375;-80
2024/01/16 12:28:50;;;;;;;;;;;;;;;4.16;100.00;98946.16;4928234;29;20041;-77
2024/01/16 12:31:18;;;;;;;;;;;;;;;4.16;100.00;98940.03;4927926;29;20379;-79
2024/01/16 12:33:44;;;;;;;;;;;;;;;4.09;100.00;98935.91;4927704;29;20345;-79
2024/01/16 12:36:10;;;;;;;;;;;;;;;4.11;100.00;98932.31;4927927;29;20062;-78
2024/01/16 12:38:36;;;;;;;;;;;;;;;4.13;100.00;98921.78;4927712;29;19931;-83
2024/01/16 12:41:02;;;;;;;;;;;;;;;4.12;100.00;98920.09;4925878;29;20026;-79
2024/01/16 12:43:27;;;;;;;;;;;;;;;4.14;100.00;98919.09;4927580;29;19923;-82
2024/01/16 12:45:56;;;;;;;;;;;;;;;4.11;100.00;98924.44;4928070;29;19926;-79
2024/01/16 12:48:27;;;;;;;;;;;;;;;4.13;100.00;98921.78;4925480;29;19919;-82
2024/01/16 12:50:59;;;;;;;;;;;;;;;4.09;100.00;98921.03;4926715;29;19930;-80
2024/01/16 12:53:25;;;;;;;;;;;;;;;4.13;100.00;98916.53;4910108;29;19970;-81
2024/01/16 12:55:57;;;;;;;;;;;;;;;4.09;100.00;98917.56;4925714;29;19919;-79
2024/01/16 12:58:27;;;;;;;;;;;;;;;4.08;100.00;98908.81;4926340;29;19977;-81
2024/01/16 13:00:53;;;;;;;;;;;;;;;4.08;100.00;98900.94;4910272;29;19930;-79
2024/01/16 13:03:19;;;;;;;;;;;;;;;4.06;100.00;98894.91;4927109;29;19919;-79
2024/01/16 13:05:46;;;;;;;;;;;;;;;4.06;100.00;98894.91;4926936;29;19919;-79
2024/01/16 13:08:19;;;;;;;;;;;;;;;4.09;100.00;98892.19;4926065;29;20199;-79
2024/01/16 13:10:44;;;;;;;;;;;;;;;4.06;100.00;98889.66;4925040;29;20601;-83
2024/01/16 13:13:16;;;;;;;;;;;;;;;4.09;100.00;98893.94;4927198;29;20001;-82
2024/01/16 13:15:43;;;;;;;;;;;;;;;4.08;100.00;98895.69;4925813;29;20006;-82
2024/01/16 13:18:24;;;;;;;;;;;;;;;4.08;100.00;98900.09;4927022;29;19918;-81
2024/01/16 13:20:50;;;;;;;;;;;;;;;4.05;100.00;98893.16;4926916;29;19977;-81
2024/01/16 13:23:16;;;;;;;;;;;;;;;4.08;100.00;98893.06;4926626;29;19971;-81
2024/01/16 13:25:45;;;;;;;;;;;;;;;4.12;100.00;98888.63;4916387;29;19914;-80
2024/01/16 13:28:11;;;;;;;;;;;;;;;4.06;100.00;98881.78;4926673;29;19919;-81
2024/01/16 13:30:36;;;;;;;;;;;;;;;4.08;100.00;98882.59;4926889;29;20342;-81
2024/01/16 13:33:02;;;;;;;;;;;;;;;4.03;100.00;98879.25;4926594;29;20339;-79
2024/01/16 13:35:27;;;;;;;;;;;;;;;4.01;100.00;98873.22;4916903;29;19959;-80
2024/01/16 13:37:53;;;;;;;;;;;;;;;4.03;100.00;98865.31;4927104;29;20421;-79
2024/01/16 13:40:19;;;;;;;;;;;;;;;4.02;100.00;98869.69;4925413;29;19923;-80
2024/01/16 13:42:45;;;;;;;;;;;;;;;4.02;100.00;98876.69;4926065;29;19919;-78
2024/01/16 13:45:13;;;;;;;;;;;;;;;4.00;100.00;98874.97;4926301;29;19923;-80
2024/01/16 13:47:40;;;;;;;;;;;;;;;4.03;100.00;98873.16;4926363;29;19978;-79
2024/01/16 13:50:05;;;;;;;;;;;;;;;4.04;100.00;98873.13;4926140;29;20387;-78
2024/01/16 13:52:30;;;;;;;;;;;;;;;4.03;100.00;98876.63;4926193;29;19926;-80
2024/01/16 13:54:57;;;;;;;;;;;;;;;4.02;100.00;98869.69;4925399;29;19931;-78
2024/01/16 13:57:22;;;;;;;;;;;;;;;4.05;100.00;98872.19;4925851;29;19930;-78
2024/01/16 13:59:47;;;;;;;;;;;;;;;4.03;100.00;98874.00;4925719;29;19923;-76
2024/01/16 14:02:13;;;;;;;;;;;;;;;4.01;100.00;98865.34;4926142;29;19919;-79
2024/01/16 14:04:38;;;;;;;;;;;;;;;3.99;100.00;98864.53;4926172;29;20397;-81
2024/01/16 14:07:03;;;;;;;;;;;;;;;4.03;100.00;98865.31;4926107;29;20347;-77
2024/01/16 14:09:32;;;;;;;;;;;;;;;4.03;100.00;98860.06;4925887;29;19919;-80
2024/01/16 14:11:57;;;;;;;;;;;;;;;3.97;100.00;98867.22;4905896;29;19950;-80
2024/01/16 14:14:23;;;;;;;;;;;;;;;4.00;100.00;98863.63;4925799;29;19923;-81
2024/01/16 14:16:49;;;;;;;;;;;;;;;3.97;100.00;98858.47;4925512;29;19923;-81
2024/01/16 14:19:14;;;;;;;;;;;;;;;3.92;100.00;98855.97;4925695;29;20021;-79
2024/01/16 14:21:39;;;;;;;;;;;;;;;3.97;100.00;98859.34;4925920;29;20005;-79
2024/01/16 14:24:05;;;;;;;;;;;;;;;4.00;100.00;98858.38;4925777;29;20107;-83
2024/01/16 14:26:30;;;;;;;;;;;;;;;3.96;100.00;98852.38;4924118;29;20013;-80
2024/01/16 14:28:55;;;;;;;;;;;;;;;3.98;100.00;98855.81;4925910;29;20273;-79
2024/01/16 14:31:20;;;;;;;;;;;;;;;3.98;100.00;98857.56;4925675;29;19923;-80
2024/01/16 14:33:46;;;;;;;;;;;;;;;3.95;100.00;98852.44;4908182;29;19925;-81
2024/01/16 14:36:11;;;;;;;;;;;;;;;3.94;100.00;98848.97;4925338;29;20449;-80
2024/01/16 14:38:36;;;;;;;;;;;;;;;3.92;100.00;98844.66;4925632;29;19918;-81
2024/01/16 14:41:03;;;;;;;;;;;;;;;3.96;100.00;98843.66;4907000;29;19962;-79
2024/01/16 14:43:29;;;;;;;;;;;;;;;3.95;100.00;98847.19;4925266;29;19923;-80
2024/01/16 14:45:54;;;;;;;;;;;;;;;3.95;100.00;98837.53;4925572;29;20263;-80
2024/01/16 14:48:19;;;;;;;;;;;;;;;3.87;100.00;98830.84;4925689;29;19941;-80
2024/01/16 14:50:47;;;;;;;;;;;;;;;3.90;100.00;98841.22;4925361;29;19920;-80
2024/01/16 14:53:12;;;;;;;;;;;;;;;3.92;100.00;98827.16;4925244;29;19918;-79
2024/01/16 14:55:37;;;;;;;;;;;;;;;3.91;100.00;98827.19;4923980;29;20380;-81
2024/01/16 14:58:03;;;;;;;;;;;;;;;3.91;100.00;98828.09;4925695;29;19926;-80
2024/01/16 15:00:28;;;;;;;;;;;;;;;3.90;100.00;98822.88;4925237;29;19919;-80
2024/01/16 15:02:54;;;;;;;;;;;;;;;3.90;100.00;98815.88;4924996;29;19997;-79
2024/01/16 15:05:19;;;;;;;;;;;;;;;3.87;100.00;98823.81;4925981;29;19925;-81
2024/01/16 15:07:45;;;;;;;;;;;;;;;3.87;100.00;98823.81;4907917;29;20027;-79
2024/01/16 15:10:17;;;;;;;;;;;;;;;3.88;100.00;98816.81;4922872;29;19919;-79
2024/01/16 15:12:42;;;;;;;;;;;;;;;3.88;100.00;98819.44;4928227;29;19929;-79
2024/01/16 15:15:09;;;;;;;;;;;;;;;3.84;100.00;98820.44;4928972;29;19919;-80
2024/01/16 15:17:35;;;;;;;;;;;;;;;3.90;100.00;98820.25;4928565;29;19958;-80
2024/01/16 15:20:00;;;;;;;;;;;;;;;3.92;100.00;98803.56;4929386;29;20103;-80
2024/01/16 15:22:25;;;;;;;;;;;;;;;3.91;100.00;98814.09;4929453;29;19929;-80
2024/01/16 15:24:51;;;;;;;;;;;;;;;3.88;100.00;98816.81;4927412;29;20241;-79
2024/01/16 15:27:16;;;;;;;;;;;;;;;3.88;100.00;98812.44;4928776;29;19923;-79
2024/01/16 15:29:41;;;;;;;;;;;;;;;3.88;100.00;98816.81;4927601;29;19919;-79
2024/01/16 15:32:06;;;;;;;;;;;;;;;3.88;100.00;98814.19;4928464;29;19923;-80
2024/01/16 15:34:32;;;;;;;;;;;;;;;3.85;100.00;98807.31;4910208;29;20013;-79
2024/01/16 15:36:58;;;;;;;;;;;;;;;3.85;100.00;98816.94;4928576;29;19919;-79
2024/01/16 15:39:24;;;;;;;;;;;;;;;3.86;100.00;98818.63;4929181;29;19919;-80
2024/01/16 15:41:49;;;;;;;;;;;;;;;3.90;100.00;98815.03;4927475;29;19923;-80
2024/01/16 15:44:14;;;;;;;;;;;;;;;3.86;100.00;98821.25;4919101;29;19961;-80
2024/01/16 15:46:59;;;;;;;;;;;;;;;3.86;100.00;98829.13;4928401;29;19926;-78
2024/01/16 15:49:25;;;;;;;;;;;;;;;3.91;100.00;98832.44;4928689;29;19930;-80
2024/01/16 15:51:50;;;;;;;;;;;;;;;3.79;100.00;98839.78;4911042;29;19919;-80
2024/01/16 15:54:15;;;;;;;;;;;;;;;3.80;100.00;98852.00;4928305;29;19919;-83
2024/01/16 15:56:42;;;;;;;;;;;;;;;3.83;100.00;98851.06;4926772;29;20382;-80
2024/01/16 15:59:07;;;;;;;;;;;;;;;3.81;100.00;98845.84;4928468;29;20371;-81
2024/01/16 16:01:32;;;;;;;;;;;;;;;3.80;100.00;98841.50;4928239;29;19928;-80
2024/01/16 16:03:58;;;;;;;;;;;;;;;3.86;100.00;98842.22;4927952;29;20431;-79
2024/01/16 16:06:23;;;;;;;;;;;;;;;3.81;100.00;98835.38;4928444;29;20017;-80
2024/01/16 16:08:48;;;;;;;;;;;;;;;3.81;100.00;98837.13;4928212;29;19921;-79
2024/01/16 16:11:13;;;;;;;;;;;;;;;3.82;100.00;98841.47;4926877;29;19923;-81
2024/01/16 16:13:39;;;;;;;;;;;;;;;3.88;100.00;98838.66;4918309;29;19915;-80
2024/01/16 16:16:04;;;;;;;;;;;;;;;3.82;100.00;98839.69;4928470;29;19918;-81
2024/01/16 16:18:29;;;;;;;;;;;;;;;3.82;100.00;98834.44;4928259;29;19990;-82
2024/01/16 16:20:54;;;;;;;;;;;;;;;3.84;100.00;98833.56;4910336;29;19974;-82
2024/01/16 16:23:19;;;;;;;;;;;;;;;3.84;100.00;98826.53;4927496;28;20005;-80
2024/01/16 16:25:46;;;;;;;;;;;;;;;3.84;100.00;98828.31;4927174;29;19919;-80
2024/01/16 16:28:11;;;;;;;;;;;;;;;3.77;100.00;98831.13;4927923;29;19930;-80
2024/01/16 16:30:36;;;;;;;;;;;;;;;3.86;100.00;98830.00;4927422;29;19919;-81
2024/01/16 16:33:02;;;;;;;;;;;;;;;4.17;100.00;98835.13;4927626;29;19922;-80
2024/01/16 16:35:27;;;;;;;;;;;;;;;4.36;100.00;98824.88;4910704;29;20374;-80
2024/01/16 16:37:52;;;;;;;;;;;;;;;4.59;100.00;98839.00;4910393;29;19919;-79
2024/01/16 16:40:18;;;;;;;;;;;;;;;4.76;100.00;98838.44;4926346;29;19923;-80
2024/01/16 16:42:43;;;;;;;;;;;;;;;4.94;100.00;98841.34;4927423;29;20010;-79
2024/01/16 16:45:08;;;;;;;;;;;;;;;5.04;100.00;98835.72;4910707;29;19923;-79
2024/01/16 16:47:34;;;;;;;;;;;;;;;5.12;100.00;98827.53;4910042;29;19927;-80
2024/01/16 16:50:00;;;;;;;;;;;;;;;5.21;100.00;98835.09;4927245;29;19937;-81
2024/01/16 16:52:25;;;;;;;;;;;;;;;5.30;100.00;98827.78;4927298;29;19922;-80
2024/01/16 16:54:50;;;;;;;;;;;;;;;5.33;100.00;98828.56;4926330;29;19923;-79
2024/01/16 16:57:15;;;;;;;;;;;;;;;5.41;100.00;98828.28;4917725;29;20013;-79
2024/01/16 16:59:41;;;;;;;;;;;;;;;5.48;100.00;98826.28;4927195;29;19923;-80
2024/01/16 17:02:06;;;;;;;;;;;;;;;5.52;100.00;98820.84;4927236;29;19926;-81
2024/01/16 17:04:32;;;;;;;;;;;;;;;5.57;100.00;98828.56;4927151;29;20070;-79
2024/01/16 17:06:57;;;;;;;;;;;;;;;5.62;100.00;98816.94;4927282;29;19946;-78
2024/01/16 17:09:23;;;;;;;;;;;;;;;5.66;100.00;98822.94;4927305;29;19965;-82
2024/01/16 17:11:48;;;;;;;;;;;;;;;5.72;100.00;98820.06;4925877;29;19926;-80
2024/01/16 17:14:14;;;;;;;;;;;;;;;5.73;100.00;98819.16;4910030;29;19923;-80
2024/01/16 17:16:40;;;;;;;;;;;;;;;5.79;100.00;98823.31;4909352;29;19920;-79
2024/01/16 17:19:05;;;;;;;;;;;;;;;5.82;100.00;98821.44;4917473;29;20005;-78
2024/01/16 17:21:30;;;;;;;;;;;;;;;5.87;100.00;98823.91;4927376;29;20040;-80
2024/01/16 17:23:56;;;;;;;;;;;;;;;5.88;100.00;98815.09;4926709;29;19919;-80
2024/01/16 17:26:21;;;;;;;;;;;;;;;5.92;100.00;98821.06;4925624;29;20005;-81
2024/01/16 17:28:47;;;;;;;;;;;;;;;5.95;100.00;98813.06;4926600;29;20005;-80
2024/01/16 17:31:12;;;;;;;;;;;;;;;5.98;100.00;98805.97;4909719;29;19996;-81
2024/01/16 17:33:37;;;;;;;;;;;;;;;6.02;100.00;98800.59;4926604;29;20013;-83
2024/01/16 17:36:10;;;;;;;;;;;;;;;6.03;100.00;98797.91;4926197;29;19927;-80
2024/01/16 17:38:35;;;;;;;;;;;;;;;6.08;100.00;98793.31;4926151;29;20010;-81
2024/01/16 17:41:01;;;;;;;;;;;;;;;6.11;100.00;98792.31;4908069;29;20010;-81
2024/01/16 17:43:27;;;;;;;;;;;;;;;6.15;100.00;98788.63;4926384;29;19923;-81
2024/01/16 17:45:52;;;;;;;;;;;;;;;6.16;100.00;98782.47;4925155;29;20002;-81
2024/01/16 17:48:18;;;;;;;;;;;;;;;6.19;100.00;98771.81;4926214;29;19919;-80
2024/01/16 17:50:46;;;;;;;;;;;;;;;6.23;100.00;98762.88;4926832;29;19926;-80
2024/01/16 17:53:11;;;;;;;;;;;;;;;6.25;100.00;98755.75;4925983;29;20031;-79
2024/01/16 17:55:37;;;;;;;;;;;;;;;6.28;100.00;98750.38;4924794;29;20461;-80
2024/01/16 17:58:02;;;;;;;;;;;;;;;6.27;100.00;98753.06;4926295;29;20425;-80
2024/01/16 18:00:29;;;;;;;;;;;;;;;6.32;100.00;98759.88;4926164;29;19958;-79
2024/01/16 18:02:57;;;;;;;;;;;;;;;6.34;100.00;98749.28;4925181;29;20348;-80
2024/01/16 18:05:23;;;;;;;;;;;;;;;6.34;100.00;98754.53;4925076;29;19975;-80
2024/01/16 18:07:48;;;;;;;;;;;;;;;6.39;100.00;98747.31;4925907;29;20355;-79
2024/01/16 18:10:14;;;;;;;;;;;;;;;6.38;100.00;98744.72;4925018;29;19977;-80
2024/01/16 18:12:39;;;;;;;;;;;;;;;6.45;100.00;98740.94;4925994;29;19958;-80
2024/01/16 18:15:11;;;;;;;;;;;;;;;6.42;100.00;98731.38;4925562;29;19919;-79
2024/01/16 18:17:36;;;;;;;;;;;;;;;6.48;100.00;98727.66;4925025;29;19923;-86
2024/01/16 18:20:02;;;;;;;;;;;;;;;6.51;100.00;98738.00;4925773;29;20461;-80
2024/01/16 18:22:30;;;;;;;;;;;;;;;6.50;100.00;98728.44;4925531;29;19926;-79
2024/01/16 18:24:55;;;;;;;;;;;;;;;6.57;100.00;98726.38;4923491;29;19958;-80
2024/01/16 18:27:23;;;;;;;;;;;;;;;6.56;100.00;98722.91;4926380;29;19972;-83
2024/01/16 18:29:48;;;;;;;;;;;;;;;6.60;100.00;98723.63;4925465;29;20294;-79
2024/01/16 18:32:13;;;;;;;;;;;;;;;6.61;100.00;98718.28;4925967;29;19918;-86
2024/01/16 18:34:42;;;;;;;;;;;;;;;6.60;100.00;98719.19;4925823;29;20275;-80
2024/01/16 18:37:09;;;;;;;;;;;;;;;6.63;100.00;98703.28;4924843;29;20370;-80
2024/01/16 18:39:34;;;;;;;;;;;;;;;6.63;100.00;98702.44;4925068;29;19922;-79
2024/01/16 18:42:00;;;;;;;;;;;;;;;6.66;100.00;98697.88;4925436;29;19993;-80
2024/01/16 18:44:25;;;;;;;;;;;;;;;6.64;100.00;98701.53;4907881;29;20355;-79
2024/01/16 18:46:50;;;;;;;;;;;;;;;6.67;100.00;98696.97;4924197;29;19919;-79
2024/01/16 18:49:15;;;;;;;;;;;;;;;6.70;100.00;98698.59;4925424;29;19942;-79
2024/01/16 18:51:41;;;;;;;;;;;;;;;6.72;100.00;98697.63;4908077;29;19930;-80
2024/01/16 18:54:06;;;;;;;;;;;;;;;6.71;100.00;98703.78;4925238;29;20290;-79
2024/01/16 18:56:32;;;;;;;;;;;;;;;6.72;100.00;98694.13;4923901;29;19927;-80
2024/01/16 18:58:58;;;;;;;;;;;;;;;6.73;100.00;98688.81;4924077;29;20367;-80
2024/01/16 19:01:23;;;;;;;;;;;;;;;6.75;100.00;98690.50;4915979;29;19926;-79
2024/01/16 19:03:48;;;;;;;;;;;;;;;6.76;100.00;98687.78;4915651;29;20283;-80
2024/01/16 19:06:14;;;;;;;;;;;;;;;6.80;100.00;98688.53;4924191;29;19925;-80
2024/01/16 19:08:41;;;;;;;;;;;;;;;6.83;100.00;98683.09;4924547;29;19923;-80
2024/01/16 19:11:07;;;;;;;;;;;;;;;6.84;100.00;98685.66;4906102;29;20453;-78
2024/01/16 19:13:33;;;;;;;;;;;;;;;6.85;100.00;98683.91;4924674;29;20021;-80
2024/01/16 19:15:59;;;;;;;;;;;;;;;6.87;100.00;98668.88;4923900;29;20394;-78
2024/01/16 19:18:24;;;;;;;;;;;;;;;6.88;100.00;98673.25;4914725;29;19923;-79
2024/01/16 19:20:52;;;;;;;;;;;;;;;6.88;100.00;98665.34;4924557;29;19919;-80
2024/01/16 19:23:17;;;;;;;;;;;;;;;6.88;100.00;98652.16;4924117;29;19919;-79
2024/01/16 19:25:42;;;;;;;;;;;;;;;6.92;100.00;98653.72;4922908;29;19991;-80
2024/01/16 19:28:08;;;;;;;;;;;;;;;6.94;100.00;98654.53;4924327;29;20302;-79
2024/01/16 19:30:33;;;;;;;;;;;;;;;6.91;100.00;98652.03;4924642;29;19929;-79
2024/01/16 19:32:59;;;;;;;;;;;;;;;6.95;100.00;98639.56;4923970;29;19919;-79
2024/01/16 19:35:24;;;;;;;;;;;;;;;6.94;100.00;98637.84;4924051;29;19926;-79
2024/01/16 19:37:50;;;;;;;;;;;;;;;6.97;100.00;98629.81;4923261;29;19926;-79
2024/01/16 19:40:18;;;;;;;;;;;;;;;6.95;100.00;98623.78;4922585;29;20362;-79
2024/01/16 19:42:44;;;;;;;;;;;;;;;6.98;100.00;98629.75;4924556;29;20017;-81
2024/01/16 19:45:17;;;;;;;;;;;;;;;6.98;100.00;98621.00;4923925;29;20056;-80
2024/01/16 19:47:42;;;;;;;;;;;;;;;6.48;100.00;98632.91;4924479;29;20375;-79
2024/01/16 19:50:20;;;;;;;;;;;;;;;5.85;100.00;98622.44;4923892;29;20009;-80
2024/01/16 19:52:46;;;;;;;;;;;;;;;5.57;100.00;98624.44;4924033;29;19989;-80
2024/01/16 19:55:11;;;;;;;;;;;;;;;5.40;100.00;98621.63;4921682;29;19926;-78
2024/01/16 19:57:37;;;;;;;;;;;;;;;5.26;100.00;98622.19;4924326;29;19923;-79
2024/01/16 20:00:03;;;;;;;;;;;;;;;5.22;100.00;98631.97;4927759;29;20073;-80
2024/01/16 20:02:29;;;;;;;;;;;;;;;5.12;100.00;98635.84;4927340;29;19926;-78
2024/01/16 20:04:54;;;;;;;;;;;;;;;5.08;100.00;98629.03;4927208;29;19968;-79
2024/01/16 20:07:19;;;;;;;;;;;;;;;5.02;100.00;98624.00;4927340;29;19923;-80
2024/01/16 20:09:44;;;;;;;;;;;;;;;4.97;100.00;98621.56;4926416;29;19923;-77
2024/01/16 20:12:10;;;;;;;;;;;;;;;4.94;100.00;98620.81;4927293;29;20377;-79
2024/01/16 20:14:37;;;;;;;;;;;;;;;4.93;100.00;98619.09;4927172;29;20393;-79
2024/01/16 20:17:03;;;;;;;;;;;;;;;4.83;100.00;98614.19;4927484;29;20366;-79
2024/01/16 20:19:28;;;;;;;;;;;;;;;4.81;100.00;98605.53;4927424;29;19923;-78
2024/01/16 20:21:53;;;;;;;;;;;;;;;4.79;100.00;98609.16;4926826;29;19974;-80
2024/01/16 20:24:19;;;;;;;;;;;;;;;4.75;100.00;98605.75;4926645;29;20367;-80
2024/01/16 20:26:44;;;;;;;;;;;;;;;4.67;100.00;98608.66;4909282;29;19930;-79
2024/01/16 20:29:10;;;;;;;;;;;;;;;4.66;100.00;98611.34;4925765;29;19919;-80
2024/01/16 20:31:36;;;;;;;;;;;;;;;4.54;100.00;98613.53;4927093;29;19919;-80
2024/01/16 20:34:01;;;;;;;;;;;;;;;4.59;100.00;98609.88;4926889;29;19919;-79
2024/01/16 20:36:26;;;;;;;;;;;;;;;4.52;100.00;98610.09;4926497;29;19926;-80
2024/01/16 20:38:51;;;;;;;;;;;;;;;4.56;100.00;98610.84;4926924;29;20443;-78
2024/01/16 20:41:17;;;;;;;;;;;;;;;4.49;100.00;98618.09;4925807;29;19934;-80
2024/01/16 20:43:43;;;;;;;;;;;;;;;4.45;100.00;98619.13;4926784;29;19919;-80
2024/01/16 20:46:08;;;;;;;;;;;;;;;4.49;100.00;98622.50;4926463;29;20435;-78
2024/01/16 20:48:34;;;;;;;;;;;;;;;4.47;100.00;98619.91;4926934;29;19954;-79
2024/01/16 20:50:59;;;;;;;;;;;;;;;4.40;100.00;98610.56;4909442;29;19971;-79
2024/01/16 20:53:26;;;;;;;;;;;;;;;4.47;100.00;98604.19;4926159;29;19919;-82
2024/01/16 20:55:51;;;;;;;;;;;;;;;4.42;100.00;98594.75;4925105;29;20404;-82
2024/01/16 20:58:17;;;;;;;;;;;;;;;4.39;100.00;98592.25;4909603;29;19923;-80
2024/01/16 21:00:45;;;;;;;;;;;;;;;4.40;100.00;98589.56;4926278;29;19965;-79
2024/01/16 21:03:11;;;;;;;;;;;;;;;4.37;100.00;98576.56;4926218;29;19926;-81
2024/01/16 21:05:37;;;;;;;;;;;;;;;4.33;100.00;98572.38;4926618;29;19954;-81
2024/01/16 21:08:02;;;;;;;;;;;;;;;4.35;100.00;98565.28;4926433;29;19957;-80
2024/01/16 21:10:28;;;;;;;;;;;;;;;4.33;100.00;98567.13;4923956;29;20017;-79
2024/01/16 21:12:53;;;;;;;;;;;;;;;4.28;100.00;98563.81;4926339;29;19965;-80
2024/01/16 21:15:19;;;;;;;;;;;;;;;4.24;100.00;98552.56;4926353;29;19930;-79
2024/01/16 21:17:44;;;;;;;;;;;;;;;4.21;100.00;98542.19;4926088;29;19923;-80
2024/01/16 21:20:09;;;;;;;;;;;;;;;4.26;100.00;98534.16;4925507;29;19923;-78
2024/01/16 21:22:34;;;;;;;;;;;;;;;4.22;100.00;98529.94;4925892;29;19958;-79
2024/01/16 21:25:00;;;;;;;;;;;;;;;4.22;100.00;98514.22;4924973;29;19977;-80
2024/01/16 21:27:25;;;;;;;;;;;;;;;4.15;100.00;98519.69;4925820;29;19974;-79
2024/01/16 21:29:50;;;;;;;;;;;;;;;4.16;100.00;98515.28;4916260;29;19923;-80
2024/01/16 21:32:15;;;;;;;;;;;;;;;4.21;100.00;98507.25;4925829;29;19929;-81
2024/01/16 21:34:41;;;;;;;;;;;;;;;4.14;100.00;98501.38;4925823;29;19974;-81
2024/01/16 21:37:06;;;;;;;;;;;;;;;4.13;100.00;98503.16;4925509;29;19919;-81
2024/01/16 21:39:32;;;;;;;;;;;;;;;4.12;100.00;98504.06;4899890;29;19923;-80